Colgan, North Dakota
Current Conditions -  °F | °C
As of 4:55 AM on Friday 24 Oct 2014 (Local Time) from KD50 Reporting Station
Few Clouds Few Clouds  
Wind Chill: 52°   Ceiling: Unl
Heat Index: 52°   Visibility: 10mi
Dew Point: 39°   Wind: 13mph
Humidity: 62%   Direction: 230°SW
Pressure: 29.75"   Gusts: NA
Location:  48.9471°N, 103.888°W
Report Text: KD50 240955Z AUTO 23011KT 10SM FEW120 11/04 A2975 RMK AO2
Loading
Personal Weather Stations






























Interactive Weather Map
Tropical Storm Tracking
New forecast layout! Learn more

10-Day Weather Forecast

Advertisements
Track Severe Weather on mobile